Time;durP1;ratioP1;P1;durP2;ratioP2;P2;SDS_P1;SDS_P2;PMS_P1;PMS_P2;Temp;Humidity;BMP_temperature;BMP_pressure;BME280_temperature;BME280_humidity;BME280_pressure;Samples;Min_cycle;Max_cycle;Signal;HPM_P1;HPM_P2
2022/04/06 00:00:32;;;;;;;18.07;4.40;;;;;9.50;100112.00;;;;10538393;28;20559;-78
2022/04/06 00:05:34;;;;;;;13.57;4.00;;;;;9.50;100111.00;;;;10442638;28;20210;-78
2022/04/06 00:10:36;;;;;;;14.20;4.77;;;;;9.50;100109.00;;;;10466441;28;20187;-78
2022/04/06 00:15:38;;;;;;;14.80;4.60;;;;;9.50;100112.00;;;;10442919;28;20193;-78
2022/04/06 00:20:39;;;;;;;14.27;4.53;;;;;9.50;100105.00;;;;10427679;28;20244;-78
2022/04/06 00:25:41;;;;;;;15.10;4.50;;;;;9.40;100105.00;;;;10446568;28;20580;-78
2022/04/06 00:30:43;;;;;;;18.57;5.77;;;;;9.40;100096.00;;;;10456180;28;20193;-78
2022/04/06 00:35:45;;;;;;;12.27;4.77;;;;;9.40;100093.00;;;;10525621;28;20690;-78
2022/04/06 00:40:47;;;;;;;14.57;4.60;;;;;9.30;100088.00;;;;10508543;28;20193;-78
2022/04/06 00:45:49;;;;;;;16.17;5.70;;;;;9.30;100083.00;;;;10508558;28;20265;-78
2022/04/06 00:50:51;;;;;;;13.47;3.93;;;;;9.30;100085.00;;;;10432705;28;20297;-78
2022/04/06 00:55:53;;;;;;;13.47;4.50;;;;;9.30;100089.00;;;;10482301;28;20189;-78
2022/04/06 01:00:55;;;;;;;15.60;4.50;;;;;9.30;100085.00;;;;10483378;28;20197;-77
2022/04/06 01:05:57;;;;;;;12.90;4.63;;;;;9.30;100084.00;;;;10449978;28;20206;-77
2022/04/06 01:10:59;;;;;;;16.27;5.13;;;;;9.40;100081.00;;;;10466587;28;20323;-77
2022/04/06 01:16:01;;;;;;;14.87;4.33;;;;;9.40;100060.00;;;;10465658;28;20283;-77
2022/04/06 01:21:04;;;;;;;15.13;4.77;;;;;9.30;100055.00;;;;10446694;28;20220;-77
2022/04/06 01:26:05;;;;;;;13.57;3.77;;;;;9.40;100052.00;;;;10423832;28;20256;-77
2022/04/06 01:31:07;;;;;;;12.27;3.97;;;;;9.40;100047.00;;;;10493100;28;20188;-77
2022/04/06 01:36:09;;;;;;;16.03;4.73;;;;;9.30;100046.00;;;;10490195;28;20205;-77
2022/04/06 01:41:11;;;;;;;16.23;4.03;;;;;9.40;100055.00;;;;10506383;28;20227;-78
2022/04/06 01:46:13;;;;;;;13.47;4.33;;;;;9.30;100045.00;;;;10506000;28;20221;-77
2022/04/06 01:56:36;;;;;;;17.23;4.07;;;;;9.30;100043.00;;;;10538267;28;20235;-78
2022/04/06 02:01:38;;;;;;;16.87;4.33;;;;;9.40;100035.00;;;;10495098;28;20204;-76
2022/04/06 02:06:41;;;;;;;12.60;3.73;;;;;9.40;100037.00;;;;10453040;28;20305;-77
2022/04/06 02:11:43;;;;;;;12.70;3.30;;;;;9.40;100023.00;;;;10420986;28;20194;-77
2022/04/06 02:16:45;;;;;;;18.70;4.63;;;;;9.30;100020.00;;;;10434931;28;20722;-77
2022/04/06 02:21:48;;;;;;;19.03;4.80;;;;;9.30;100019.00;;;;10489210;28;20287;-77
2022/04/06 02:26:50;;;;;;;17.83;4.73;;;;;9.30;100018.00;;;;10487721;28;20355;-76
2022/04/06 02:31:52;;;;;;;17.50;4.53;;;;;9.30;100010.00;;;;10479976;28;20225;-77
2022/04/06 02:36:55;;;;;;;18.20;4.83;;;;;9.30;100011.00;;;;10444989;28;20213;-77
2022/04/06 02:41:57;;;;;;;10.53;3.93;;;;;9.30;100007.00;;;;10462340;28;20190;-77
2022/04/06 02:46:59;;;;;;;17.20;4.70;;;;;9.20;100000.00;;;;10471170;28;20247;-77
2022/04/06 02:52:01;;;;;;;12.23;3.80;;;;;9.20;99993.00;;;;10492198;28;20197;-77
2022/04/06 02:57:03;;;;;;;18.77;4.70;;;;;9.20;100002.00;;;;10459967;28;20193;-77
2022/04/06 03:02:05;;;;;;;14.87;4.17;;;;;9.20;99997.00;;;;10450700;28;20247;-77
2022/04/06 03:07:07;;;;;;;15.70;4.40;;;;;9.10;99995.00;;;;10453839;28;20209;-77
2022/04/06 03:12:09;;;;;;;11.43;4.07;;;;;9.20;99988.00;;;;10471865;28;20205;-77
2022/04/06 03:17:15;;;;;;;10.03;3.30;;;;;9.10;99981.00;;;;10443953;28;20645;-78
2022/04/06 03:22:17;;;;;;;11.57;3.73;;;;;9.10;99975.00;;;;10474294;28;20201;-77
2022/04/06 03:27:20;;;;;;;14.53;3.90;;;;;9.10;99968.00;;;;10511179;28;20300;-77
2022/04/06 03:32:22;;;;;;;12.77;4.00;;;;;9.10;99966.00;;;;10528048;28;20224;-76
2022/04/06 03:37:24;;;;;;;12.63;4.03;;;;;9.10;99956.00;;;;10510761;28;20197;-77
2022/04/06 03:42:27;;;;;;;8.47;3.50;;;;;9.10;99964.00;;;;10464751;28;20216;-76
2022/04/06 03:47:33;;;;;;;11.30;3.60;;;;;9.10;99949.00;;;;10484818;28;20245;-77
2022/04/06 03:52:35;;;;;;;8.03;3.17;;;;;9.10;99959.00;;;;10468867;28;20280;-80
2022/04/06 03:57:38;;;;;;;9.63;2.97;;;;;9.10;99948.00;;;;10469203;28;20197;-80
2022/04/06 04:02:40;;;;;;;13.70;3.77;;;;;9.20;99937.00;;;;10455897;28;20608;-79
2022/04/06 04:07:44;;;;;;;14.97;4.30;;;;;9.20;99951.00;;;;10467569;28;20682;-77
2022/04/06 04:12:45;;;;;;;7.73;2.93;;;;;9.10;99938.00;;;;10483245;28;20182;-77
2022/04/06 04:17:47;;;;;;;12.93;3.73;;;;;9.10;99938.00;;;;10467157;28;20244;-77
2022/04/06 04:22:49;;;;;;;16.40;3.97;;;;;9.10;99947.00;;;;10502960;28;20208;-77
2022/04/06 04:27:51;;;;;;;13.43;3.60;;;;;9.00;99946.00;;;;10440233;28;20202;-77
2022/04/06 04:32:53;;;;;;;11.33;4.30;;;;;8.90;99939.00;;;;10524187;28;20185;-77
2022/04/06 04:37:55;;;;;;;19.87;4.90;;;;;8.80;99943.00;;;;10525028;28;20262;-79
2022/04/06 04:42:59;;;;;;;11.13;3.83;;;;;8.80;99940.00;;;;10491746;28;20200;-77
2022/04/06 04:48:05;;;;;;;9.97;3.30;;;;;8.80;99930.00;;;;10509809;28;20205;-77
2022/04/06 04:53:07;;;;;;;11.80;4.13;;;;;8.80;99926.00;;;;10504353;28;20211;-77
2022/04/06 04:58:09;;;;;;;7.20;3.83;;;;;8.90;99915.00;;;;10508065;28;20189;-79
2022/04/06 05:03:11;;;;;;;11.40;3.67;;;;;8.90;99911.00;;;;10508386;28;20189;-79
2022/04/06 05:08:13;;;;;;;13.67;4.00;;;;;8.90;99901.00;;;;10507021;28;20258;-76
2022/04/06 05:13:17;;;;;;;12.37;4.77;;;;;8.90;99900.00;;;;10507618;28;20220;-77
2022/04/06 05:18:19;;;;;;;14.87;3.70;;;;;8.90;99899.00;;;;10507177;28;20213;-78
2022/04/06 05:23:21;;;;;;;9.93;3.50;;;;;8.90;99910.00;;;;10439152;28;20206;-79
2022/04/06 05:28:24;;;;;;;14.80;4.03;;;;;8.90;99903.00;;;;10447025;28;20193;-77
2022/04/06 05:33:26;;;;;;;11.17;3.33;;;;;8.90;99904.00;;;;10495143;28;20774;-77
2022/04/06 05:38:29;;;;;;;9.07;3.40;;;;;8.90;99910.00;;;;10448418;28;20575;-79
2022/04/06 05:43:31;;;;;;;11.63;3.87;;;;;8.90;99908.00;;;;10511933;28;20524;-77
2022/04/06 05:48:34;;;;;;;8.13;2.77;;;;;8.90;99917.00;;;;10501389;28;20560;-76
2022/04/06 05:53:36;;;;;;;7.40;2.40;;;;;8.90;99919.00;;;;10470284;28;20204;-76
2022/04/06 05:58:38;;;;;;;7.40;3.20;;;;;8.90;99909.00;;;;10504601;28;20643;-79
2022/04/06 06:03:39;;;;;;;6.93;2.43;;;;;9.00;99903.00;;;;10505098;28;20197;-79
2022/04/06 06:08:41;;;;;;;6.90;2.73;;;;;9.10;99899.00;;;;10488003;28;20204;-76
2022/04/06 06:13:43;;;;;;;6.77;2.93;;;;;9.10;99888.00;;;;10488121;28;20192;-76
2022/04/06 06:18:45;;;;;;;6.00;2.50;;;;;9.30;99892.00;;;;10529878;28;20651;-77
2022/04/06 06:23:47;;;;;;;11.83;2.60;;;;;9.40;99886.00;;;;10519942;28;20266;-77
2022/04/06 06:28:49;;;;;;;3.93;1.70;;;;;9.40;99880.00;;;;10541962;28;20208;-77
2022/04/06 06:33:51;;;;;;;10.27;2.67;;;;;9.70;99862.00;;;;10497295;28;20209;-79
2022/04/06 06:38:55;;;;;;;9.40;2.30;;;;;9.90;99866.00;;;;10487474;28;20205;-79
2022/04/06 06:43:58;;;;;;;5.40;1.90;;;;;10.20;99859.00;;;;10486495;28;20207;-77
2022/04/06 06:49:04;;;;;;;8.00;1.90;;;;;10.30;99859.00;;;;10510107;28;20212;-77
2022/04/06 06:54:06;;;;;;;10.07;2.50;;;;;10.40;99858.00;;;;10502833;28;20200;-77
2022/04/06 06:59:08;;;;;;;5.27;1.80;;;;;10.30;99855.00;;;;10486356;28;20185;-77
2022/04/06 07:04:10;;;;;;;8.63;2.43;;;;;10.30;99859.00;;;;10541525;28;20249;-77
2022/04/06 07:09:12;;;;;;;7.03;1.70;;;;;10.30;99857.00;;;;10529909;28;20227;-79
2022/04/06 07:14:14;;;;;;;6.63;1.90;;;;;10.30;99857.00;;;;10531427;28;20188;-79
2022/04/06 07:19:16;;;;;;;8.03;2.30;;;;;10.20;99853.00;;;;10528453;28;20696;-78
2022/04/06 07:24:18;;;;;;;4.17;1.70;;;;;10.10;99856.00;;;;10514370;28;20201;-80
2022/04/06 07:29:20;;;;;;;7.10;1.83;;;;;10.10;99847.00;;;;10497012;28;20200;-77
2022/04/06 07:34:22;;;;;;;10.67;1.90;;;;;10.10;99856.00;;;;10561402;28;20184;-77
2022/04/06 07:39:26;;;;;;;7.53;2.20;;;;;10.30;99837.00;;;;10511501;28;20204;-77
2022/04/06 07:44:28;;;;;;;4.37;2.13;;;;;10.40;99840.00;;;;10527644;28;20254;-77
2022/04/06 07:49:30;;;;;;;4.37;1.83;;;;;10.60;99838.00;;;;10550815;28;20192;-77
2022/04/06 07:54:32;;;;;;;9.57;2.17;;;;;10.80;99833.00;;;;10526318;28;20200;-77
2022/04/06 07:59:34;;;;;;;3.70;1.80;;;;;11.20;99827.00;;;;10476627;28;20192;-77
2022/04/06 08:04:36;;;;;;;9.17;2.00;;;;;11.20;99825.00;;;;10493859;28;20192;-77
2022/04/06 08:09:38;;;;;;;5.57;1.37;;;;;11.40;99832.00;;;;10508866;28;20213;-79
2022/04/06 08:14:40;;;;;;;7.30;1.83;;;;;11.50;99825.00;;;;10510305;28;20197;-77
2022/04/06 08:19:42;;;;;;;6.20;1.90;;;;;11.80;99832.00;;;;10516509;28;20204;-77
2022/04/06 08:24:44;;;;;;;8.67;1.97;;;;;12.20;99833.00;;;;10562954;27;20610;-77
2022/04/06 08:29:46;;;;;;;8.70;2.03;;;;;12.40;99831.00;;;;10559925;27;20203;-77
2022/04/06 08:34:48;;;;;;;6.00;1.73;;;;;12.70;99826.00;;;;10611029;27;20191;-77
2022/04/06 08:39:50;;;;;;;4.07;2.00;;;;;12.70;99830.00;;;;10559013;27;20264;-77
2022/04/06 08:45:09;;;;;;;6.53;1.63;;;;;12.60;99826.00;;;;10592862;27;20202;-77
2022/04/06 08:50:16;;;;;;;7.73;1.70;;;;;12.50;99817.00;;;;10558714;27;20235;-77
2022/04/06 08:55:18;;;;;;;2.23;1.37;;;;;12.50;99807.00;;;;10508317;28;20555;-77
2022/04/06 09:00:20;;;;;;;4.37;1.43;;;;;12.80;99807.00;;;;10474554;28;20197;-77
2022/04/06 09:05:28;;;;;;;5.93;1.53;;;;;13.20;99806.00;;;;10507523;28;20193;-77
2022/04/06 09:10:36;;;;;;;5.73;1.87;;;;;13.40;99807.00;;;;10474300;28;20209;-77
2022/04/06 09:15:38;;;;;;;4.03;1.43;;;;;14.90;99803.00;;;;10524417;28;20185;-77
2022/04/06 09:20:40;;;;;;;6.37;2.10;;;;;16.00;99806.00;;;;10492101;27;20603;-76
2022/04/06 09:25:42;;;;;;;7.77;1.60;;;;;16.10;99787.00;;;;10607377;27;20357;-77
2022/04/06 09:30:46;;;;;;;2.60;1.40;;;;;16.10;99793.00;;;;10532772;27;20739;-77
2022/04/06 09:35:49;;;;;;;7.70;2.27;;;;;15.90;99787.00;;;;10515131;28;20193;-77
2022/04/06 09:41:00;;;;;;;6.70;1.93;;;;;15.50;99799.00;;;;10531421;28;20189;-77
2022/04/06 09:51:48;;;;;;;3.57;1.60;;;;;15.60;99794.00;;;;10543164;27;20203;-77
2022/04/06 09:56:54;;;;;;;9.33;2.70;;;;;16.40;99782.00;;;;10543879;27;20195;-77
2022/04/06 10:01:58;;;;;;;5.70;2.40;;;;;16.00;99781.00;;;;10531655;28;20254;-77
2022/04/06 10:07:01;;;;;;;8.40;2.20;;;;;16.10;99781.00;;;;10505761;28;20212;-76
2022/04/06 10:12:03;;;;;;;4.77;1.80;;;;;15.90;99761.00;;;;10488084;28;20243;-77
2022/04/06 10:17:05;;;;;;;6.07;2.57;;;;;15.70;99769.00;;;;10472929;28;20189;-77
2022/04/06 10:22:18;;;;;;;5.87;3.03;;;;;14.90;99775.00;;;;10505056;28;20651;-77
2022/04/06 10:27:29;;;;;;;8.83;2.20;;;;;14.40;99777.00;;;;10505096;28;20213;-77
2022/04/06 10:32:34;;;;;;;7.57;2.60;;;;;13.70;99766.00;;;;10547314;28;20199;-78
2022/04/06 10:38:07;;;;;;;4.10;2.37;;;;;13.40;99754.00;;;;10547309;28;20245;-77
2022/04/06 10:43:34;;;;;;;7.40;2.40;;;;;13.60;99744.00;;;;10505437;28;20204;-77
2022/04/06 10:48:57;;;;;;;6.43;2.10;;;;;13.50;99745.00;;;;10545892;28;20211;-78
2022/04/06 10:54:19;;;;;;;8.63;3.03;;;;;13.70;99734.00;;;;10558936;28;20259;-78
2022/04/06 10:59:23;;;;;;;7.00;2.70;;;;;13.60;99738.00;;;;10605331;28;20183;-78
2022/04/06 11:04:39;;;;;;;4.47;2.60;;;;;13.40;99734.00;;;;10590677;28;20190;-79
2022/04/06 11:15:03;;;;;;;6.27;2.60;;;;;13.30;99720.00;;;;10590471;28;20278;-79
2022/04/06 11:20:12;;;;;;;6.40;2.90;;;;;13.50;99716.00;;;;10572504;27;20270;-79
2022/04/06 11:25:15;;;;;;;5.63;2.47;;;;;13.50;99712.00;;;;10485433;28;20212;-78
2022/04/06 11:30:19;;;;;;;3.50;2.13;;;;;13.60;99712.00;;;;10516275;28;20214;-78
2022/04/06 11:35:28;;;;;;;7.07;2.77;;;;;13.60;99702.00;;;;10554093;28;20192;-77
2022/04/06 11:40:31;;;;;;;6.57;2.70;;;;;14.00;99701.00;;;;10552450;28;20261;-77
2022/04/06 11:45:37;;;;;;;5.77;2.83;;;;;13.80;99701.00;;;;10519499;28;20241;-77
2022/04/06 11:50:40;;;;;;;12.57;3.30;;;;;13.50;99700.00;;;;10536220;27;20266;-77
2022/04/06 11:55:48;;;;;;;9.40;3.23;;;;;13.40;99694.00;;;;10594132;27;20196;-79
2022/04/06 12:01:00;;;;;;;5.90;3.20;;;;;12.90;99687.00;;;;10578792;27;20266;-78
2022/04/06 12:06:04;;;;;;;7.33;3.20;;;;;12.70;99691.00;;;;10572398;27;20203;-78
2022/04/06 12:11:07;;;;;;;6.77;2.60;;;;;12.80;99672.00;;;;10519682;28;20344;-77
2022/04/06 12:16:10;;;;;;;7.30;2.63;;;;;13.00;99664.00;;;;10551384;28;20202;-77
2022/04/06 12:21:22;;;;;;;6.00;2.70;;;;;12.90;99680.00;;;;10523586;27;20196;-77
2022/04/06 12:26:25;;;;;;;3.07;2.57;;;;;12.60;99666.00;;;;10576813;27;20522;-77
2022/04/06 12:31:34;;;;;;;7.37;3.10;;;;;12.80;99656.00;;;;10552244;27;20567;-77
2022/04/06 12:36:37;;;;;;;4.50;2.77;;;;;12.90;99650.00;;;;10508597;28;20667;-77
2022/04/06 12:42:07;;;;;;;4.17;2.50;;;;;13.00;99651.00;;;;10509422;28;20195;-79
2022/04/06 12:47:23;;;;;;;5.70;3.23;;;;;13.20;99634.00;;;;10518530;28;20303;-77
2022/04/06 12:52:25;;;;;;;4.90;2.20;;;;;13.30;99623.00;;;;10518089;28;20563;-78
2022/04/06 12:57:27;;;;;;;4.40;2.63;;;;;13.20;99608.00;;;;10524771;28;20640;-78
2022/04/06 13:02:33;;;;;;;3.83;2.10;;;;;13.40;99594.00;;;;10561962;28;20222;-77
2022/04/06 13:07:37;;;;;;;4.33;2.33;;;;;13.90;99578.00;;;;10519062;28;20697;-78
2022/04/06 13:12:41;;;;;;;4.10;2.27;;;;;13.90;99568.00;;;;10491696;28;20197;-78
2022/04/06 13:17:45;;;;;;;7.10;2.30;;;;;13.50;99579.00;;;;10474585;28;20185;-79
2022/04/06 13:22:49;;;;;;;3.63;2.90;;;;;13.50;99575.00;;;;10527226;28;20196;-78
2022/04/06 13:27:51;;;;;;;5.03;2.87;;;;;13.20;99580.00;;;;10548662;28;20210;-77
2022/04/06 13:32:53;;;;;;;4.37;2.67;;;;;13.10;99575.00;;;;10511640;28;20209;-77
2022/04/06 13:37:55;;;;;;;5.33;2.10;;;;;13.50;99565.00;;;;10507706;28;20201;-79
2022/04/06 13:42:56;;;;;;;9.03;2.60;;;;;14.00;99550.00;;;;10506858;28;20264;-77
2022/04/06 13:47:58;;;;;;;4.93;2.77;;;;;14.30;99553.00;;;;10521735;28;20718;-78
2022/04/06 13:53:00;;;;;;;3.40;2.30;;;;;14.00;99532.00;;;;10505793;28;20201;-78
2022/04/06 13:58:03;;;;;;;5.27;2.57;;;;;14.00;99526.00;;;;10506595;28;20181;-77
2022/04/06 14:03:05;;;;;;;4.37;3.03;;;;;14.30;99520.00;;;;10523183;28;20178;-77
2022/04/06 14:08:07;;;;;;;4.17;2.77;;;;;13.40;99516.00;;;;10541071;28;20210;-77
2022/04/06 14:13:09;;;;;;;4.67;3.43;;;;;12.90;99506.00;;;;10530567;28;20188;-77
2022/04/06 14:18:11;;;;;;;6.13;4.00;;;;;12.80;99502.00;;;;10547109;28;20743;-77
2022/04/06 14:23:13;;;;;;;8.93;5.90;;;;;12.70;99497.00;;;;10537230;27;20195;-78
2022/04/06 14:28:21;;;;;;;5.40;3.90;;;;;12.60;99478.00;;;;10556884;27;20211;-78
2022/04/06 14:33:23;;;;;;;6.63;4.77;;;;;12.80;99471.00;;;;10572170;27;20244;-77
2022/04/06 14:38:27;;;;;;;6.10;3.80;;;;;12.70;99468.00;;;;10555947;27;20247;-79
2022/04/06 14:43:29;;;;;;;6.20;4.07;;;;;12.70;99469.00;;;;10556197;27;20203;-79
2022/04/06 14:48:31;;;;;;;7.10;4.17;;;;;12.70;99451.00;;;;10544178;28;20269;-79
2022/04/06 14:53:33;;;;;;;5.87;3.77;;;;;12.50;99451.00;;;;10561318;28;20192;-80
2022/04/06 14:58:35;;;;;;;8.37;4.00;;;;;12.50;99436.00;;;;10503901;28;20184;-79
2022/04/06 15:03:37;;;;;;;8.00;2.90;;;;;12.60;99436.00;;;;10505991;28;20208;-79
2022/04/06 15:08:40;;;;;;;6.77;3.07;;;;;12.70;99428.00;;;;10488790;28;20216;-79
2022/04/06 15:13:42;;;;;;;4.13;2.30;;;;;12.80;99432.00;;;;10521131;28;20204;-78
2022/04/06 15:18:44;;;;;;;3.00;2.30;;;;;12.70;99421.00;;;;10519956;28;20246;-77
2022/04/06 15:23:46;;;;;;;7.20;2.00;;;;;12.60;99411.00;;;;10534269;28;20200;-78
2022/04/06 15:28:49;;;;;;;3.10;2.40;;;;;12.50;99401.00;;;;10534665;28;20257;-78
2022/04/06 15:33:51;;;;;;;3.07;2.10;;;;;12.20;99417.00;;;;10610715;28;20197;-77
2022/04/06 15:38:53;;;;;;;4.23;2.90;;;;;11.90;99394.00;;;;10504553;28;20220;-79
2022/04/06 15:43:55;;;;;;;5.20;2.87;;;;;11.40;99408.00;;;;10521236;28;20193;-79
2022/04/06 15:48:57;;;;;;;5.40;3.27;;;;;11.20;99393.00;;;;10522692;28;20209;-82
2022/04/06 15:53:59;;;;;;;5.07;3.10;;;;;11.10;99376.00;;;;10551736;28;20269;-81
2022/04/06 15:59:02;;;;;;;3.37;2.87;;;;;11.20;99373.00;;;;10548610;28;20199;-80
2022/04/06 16:04:04;;;;;;;5.03;3.10;;;;;10.90;99381.00;;;;10563937;28;20185;-79
2022/04/06 16:09:07;;;;;;;7.23;3.70;;;;;10.70;99362.00;;;;10533314;28;20686;-79
2022/04/06 16:14:11;;;;;;;6.67;3.70;;;;;10.60;99364.00;;;;10571476;28;20242;-80
2022/04/06 16:19:13;;;;;;;11.07;4.70;;;;;10.70;99353.00;;;;10570890;28;20576;-77
2022/04/06 16:24:21;;;;;;;5.60;4.47;;;;;10.50;99363.00;;;;10529548;28;20270;-80
2022/04/06 16:29:26;;;;;;;7.73;5.37;;;;;10.30;99353.00;;;;10494896;28;20270;-80
2022/04/06 16:34:28;;;;;;;13.07;4.90;;;;;10.20;99344.00;;;;10512150;28;20250;-80
2022/04/06 16:39:30;;;;;;;8.00;4.80;;;;;10.30;99333.00;;;;10526663;28;20205;-80
2022/04/06 16:44:33;;;;;;;9.20;4.67;;;;;10.40;99317.00;;;;10541629;28;20208;-79
2022/04/06 16:55:00;;;;;;;10.27;3.03;;;;;10.70;99312.00;;;;10514448;28;20210;-79
2022/04/06 17:00:11;;;;;;;4.73;2.63;;;;;10.50;99312.00;;;;10553132;28;20188;-80
2022/04/06 17:05:14;;;;;;;3.00;2.77;;;;;10.20;99306.00;;;;10537693;28;20654;-80
2022/04/06 17:10:23;;;;;;;4.93;3.00;;;;;10.00;99293.00;;;;10553198;28;20299;-81
2022/04/06 17:15:27;;;;;;;6.93;3.00;;;;;9.90;99316.00;;;;10552812;28;20195;-81
2022/04/06 17:20:29;;;;;;;2.67;2.47;;;;;9.90;99311.00;;;;10568672;28;20192;-81
2022/04/06 17:25:31;;;;;;;3.00;2.67;;;;;9.90;99312.00;;;;10510422;28;20193;-78
2022/04/06 17:30:33;;;;;;;2.50;2.10;;;;;9.70;99288.00;;;;10552014;27;20229;-79
2022/04/06 17:35:35;;;;;;;6.23;2.60;;;;;9.60;99289.00;;;;10592114;27;20206;-80
2022/04/06 17:40:37;;;;;;;4.43;2.60;;;;;9.60;99298.00;;;;10570726;27;20374;-81
2022/04/06 17:45:40;;;;;;;3.07;2.20;;;;;9.50;99295.00;;;;10525046;28;20196;-80
2022/04/06 17:50:42;;;;;;;6.93;2.60;;;;;9.50;99298.00;;;;10531922;28;20208;-80
2022/04/06 17:55:44;;;;;;;3.40;2.57;;;;;9.50;99288.00;;;;10523715;28;20200;-80
2022/04/06 18:00:46;;;;;;;5.37;3.73;;;;;9.50;99272.00;;;;10524196;28;20532;-80
2022/04/06 18:05:48;;;;;;;9.30;5.47;;;;;9.50;99279.00;;;;10523696;28;20189;-79
2022/04/06 18:16:13;;;;;;;12.33;6.00;;;;;9.40;99254.00;;;;10522721;28;20220;-80
2022/04/06 18:21:16;;;;;;;10.00;5.60;;;;;9.40;99250.00;;;;10530134;28;20188;-80
2022/04/06 18:26:18;;;;;;;11.07;6.43;;;;;9.40;99240.00;;;;10565567;28;20279;-80
2022/04/06 18:31:20;;;;;;;12.60;6.77;;;;;9.50;99235.00;;;;10576557;27;20203;-80
2022/04/06 18:36:23;;;;;;;13.97;7.83;;;;;9.50;99228.00;;;;10590288;27;20264;-80
2022/04/06 18:41:26;;;;;;;19.33;8.80;;;;;9.50;99216.00;;;;10589624;27;20219;-80
2022/04/06 18:46:28;;;;;;;19.73;9.07;;;;;9.50;99222.00;;;;10606948;27;20207;-80
2022/04/06 18:51:30;;;;;;;14.13;7.27;;;;;9.60;99202.00;;;;10581587;27;20204;-80
2022/04/06 18:56:32;;;;;;;11.90;5.60;;;;;9.60;99212.00;;;;10547250;28;20188;-79
2022/04/06 19:01:35;;;;;;;10.27;5.93;;;;;9.60;99204.00;;;;10545534;28;20208;-80
2022/04/06 19:06:38;;;;;;;8.83;4.93;;;;;9.70;99216.00;;;;10530805;28;20192;-81
2022/04/06 19:11:40;;;;;;;8.20;4.90;;;;;9.70;99211.00;;;;10563843;28;20210;-80
2022/04/06 19:16:42;;;;;;;8.40;5.30;;;;;9.60;99204.00;;;;10546900;28;20223;-81
2022/04/06 19:21:44;;;;;;;6.90;4.17;;;;;9.70;99205.00;;;;10546401;28;20199;-79
2022/04/06 19:26:47;;;;;;;5.23;3.90;;;;;9.60;99201.00;;;;10563455;28;20195;-79
2022/04/06 19:31:48;;;;;;;6.07;3.80;;;;;9.60;99197.00;;;;10578944;28;20212;-79
2022/04/06 19:36:51;;;;;;;5.63;3.70;;;;;9.70;99194.00;;;;10588978;28;20247;-80
2022/04/06 19:41:53;;;;;;;7.10;4.10;;;;;9.80;99184.00;;;;10588689;27;20188;-80
2022/04/06 19:46:55;;;;;;;5.30;3.30;;;;;9.70;99179.00;;;;10590185;27;20192;-79
2022/04/06 19:51:57;;;;;;;5.30;3.07;;;;;9.70;99167.00;;;;10589059;28;20204;-80
2022/04/06 19:57:00;;;;;;;3.43;2.80;;;;;9.60;99161.00;;;;10570543;28;20184;-79
2022/04/06 20:02:02;;;;;;;3.37;2.47;;;;;9.60;99152.00;;;;10562699;28;20238;-80
2022/04/06 20:07:05;;;;;;;2.40;2.20;;;;;9.50;99152.00;;;;10528956;28;20843;-80
2022/04/06 20:12:07;;;;;;;3.97;3.17;;;;;9.60;99154.00;;;;10528031;28;20238;-79
2022/04/06 20:17:15;;;;;;;2.93;2.23;;;;;9.60;99155.00;;;;10528559;28;20188;-80
2022/04/06 20:22:17;;;;;;;3.77;2.70;;;;;9.70;99144.00;;;;10543060;28;20238;-79
2022/04/06 20:27:19;;;;;;;4.27;2.70;;;;;9.80;99146.00;;;;10568935;28;20192;-79
2022/04/06 20:32:21;;;;;;;5.97;3.50;;;;;9.90;99141.00;;;;10569160;27;20612;-79
2022/04/06 20:37:23;;;;;;;7.70;5.30;;;;;9.90;99128.00;;;;10552686;28;20212;-79
2022/04/06 20:42:25;;;;;;;12.47;6.43;;;;;10.00;99109.00;;;;10535648;28;20184;-80
2022/04/06 20:47:27;;;;;;;13.03;6.70;;;;;10.10;99116.00;;;;10550697;28;20192;-81
2022/04/06 20:52:29;;;;;;;11.77;6.33;;;;;10.10;99106.00;;;;10537074;28;20212;-80
2022/04/06 20:57:31;;;;;;;16.47;7.40;;;;;10.10;99091.00;;;;10549830;28;20241;-80
2022/04/06 21:02:37;;;;;;;13.43;7.90;;;;;10.10;99108.00;;;;10565627;28;20196;-80
2022/04/06 21:07:40;;;;;;;11.13;6.83;;;;;10.00;99110.00;;;;10508192;28;20232;-80
2022/04/06 21:12:42;;;;;;;9.33;6.10;;;;;9.90;99104.00;;;;10508744;28;20284;-79
2022/04/06 21:17:44;;;;;;;6.20;4.57;;;;;9.90;99072.00;;;;10509241;28;20246;-80
2022/04/06 21:22:51;;;;;;;4.77;3.97;;;;;10.00;99078.00;;;;10543868;28;20249;-79
2022/04/06 21:27:53;;;;;;;5.57;3.30;;;;;9.90;99072.00;;;;10533618;28;20227;-80
2022/04/06 21:32:55;;;;;;;3.00;2.70;;;;;9.90;99064.00;;;;10533018;28;20192;-79
2022/04/06 21:37:57;;;;;;;4.27;2.47;;;;;9.90;99056.00;;;;10548832;28;20217;-79
2022/04/06 21:43:01;;;;;;;3.00;2.37;;;;;9.80;99062.00;;;;10549004;28;20208;-79
2022/04/06 21:48:03;;;;;;;1.67;1.50;;;;;9.80;99047.00;;;;10550171;28;20192;-80
2022/04/06 21:53:06;;;;;;;1.93;1.50;;;;;9.70;99040.00;;;;10550045;28;20613;-79
2022/04/06 21:58:08;;;;;;;5.13;2.33;;;;;9.60;99031.00;;;;10523401;28;20197;-79
2022/04/06 22:03:12;;;;;;;2.27;1.47;;;;;9.50;99030.00;;;;10526584;28;20188;-79
2022/04/06 22:08:15;;;;;;;2.13;1.17;;;;;9.50;99025.00;;;;10547998;28;20208;-79
2022/04/06 22:13:17;;;;;;;2.40;1.00;;;;;9.40;99024.00;;;;10565596;28;20948;-80
2022/04/06 22:18:19;;;;;;;2.17;1.00;;;;;9.50;99017.00;;;;10493226;28;20197;-79
2022/04/06 22:23:20;;;;;;;1.57;1.10;;;;;9.60;98988.00;;;;10546556;28;20241;-79
2022/04/06 22:28:22;;;;;;;2.73;1.10;;;;;9.70;98986.00;;;;10568794;27;20195;-80
2022/04/06 22:33:24;;;;;;;3.33;1.00;;;;;9.70;98968.00;;;;10511989;28;20201;-79
2022/04/06 22:38:26;;;;;;;3.40;1.37;;;;;9.80;98968.00;;;;10537246;28;20228;-80
2022/04/06 22:43:28;;;;;;;3.70;1.47;;;;;9.90;98964.00;;;;10547136;28;20658;-80
2022/04/06 22:48:30;;;;;;;2.57;1.20;;;;;9.90;98964.00;;;;10564650;28;20204;-80
2022/04/06 22:53:32;;;;;;;3.37;1.20;;;;;9.90;98958.00;;;;10547682;28;20722;-79
2022/04/06 22:58:34;;;;;;;4.43;1.37;;;;;9.80;98962.00;;;;10547667;28;20184;-80
2022/04/06 23:03:36;;;;;;;4.33;2.03;;;;;9.80;98953.00;;;;10547657;28;20234;-80
2022/04/06 23:08:38;;;;;;;4.63;1.70;;;;;9.80;98948.00;;;;10547541;28;20208;-80
2022/04/06 23:13:41;;;;;;;3.83;1.67;;;;;9.80;98944.00;;;;10563511;28;20299;-80
2022/04/06 23:18:43;;;;;;;2.83;1.83;;;;;9.80;98936.00;;;;10551774;28;20192;-80
2022/04/06 23:23:45;;;;;;;2.83;1.60;;;;;9.60;98936.00;;;;10555652;28;20200;-80
2022/04/06 23:28:47;;;;;;;3.40;2.13;;;;;9.60;98929.00;;;;10571232;28;20246;-80
2022/04/06 23:33:49;;;;;;;7.30;2.20;;;;;9.70;98916.00;;;;10555262;28;20223;-80
2022/04/06 23:38:51;;;;;;;7.23;1.47;;;;;9.70;98911.00;;;;10555025;28;20311;-80
2022/04/06 23:43:53;;;;;;;3.23;1.53;;;;;9.70;98913.00;;;;10554349;28;20196;-80
2022/04/06 23:48:56;;;;;;;5.57;1.70;;;;;9.70;98905.00;;;;10540968;28;20205;-79
2022/04/06 23:53:58;;;;;;;6.13;1.70;;;;;9.80;98886.00;;;;10521979;28;20654;-79
2022/04/06 23:59:03;;;;;;;9.07;1.93;;;;;9.80;98877.00;;;;10569971;28;20196;-79
